Terminal Aerodrome Forecast
Issued by NWS

Home | Current Version | Previous Version | Text Only | Print | Product List | Glossary On
Versions: 1 2 3 4 5 6 7 8 9 10 11 12 13 14 15 16 17 18 19 20 21
003
FTUS41 KBTV 240521
TAFMPV
TAF
KMPV 240521Z 2406/2506 06005KT 4SM -SNPL BR OVC045
     FM240800 05007KT 4SM -SNPL BR OVC020
     FM241300 04007KT 4SM -SNPL BR OVC010
     FM241500 04006KT 4SM -PL BR OVC015
     FM241900 04005KT 4SM -FZRA BR OVC015
     FM250000 34004KT 4SM -PL BR OVC010=

USA.gov is the U.S. government's official web portal to all federal, state and local government web resources and services.